Main page
METAR-TAF:

METAR-TAF

Airports :

Hakkari–Yüksekova Airport

Yüksekova, Turkey

latitude: 37-33-06N, longitude: 44-14-01E, elevation: 1950 m

Current weather observation

The report was made 12 hours and 33 minutes ago, at 12:50 UTC
Calm wind
Temperature 14°C
Humidity 21%
Pressure 1023 hPa
Visibility 10 km or more
no clouds below 1500 m and no cumulonimbus

METAR: LTCW 141250Z 00000KT CAVOK 14/M08 Q1023

Time: 04:23 (01:23 UTC)

Forecast

The report was made 2 hours and 43 minutes ago, at 22:40 UTC
Forecast valid from 15 at 00 UTC to 15 at 09 UTC
Wind 7 kt from the East/Northeast
Visibility 10 km or more
no clouds below 1500 m and no cumulonimbus
Temporary
from 15 at 03 UTC to 15 at 06 UTC
Visibility: 3500 m
mist

TAF: LTCW 142240Z 1500/1509 06007KT CAVOK TEMPO 1503/1506 3500 BR

Weather observations and forecasts of more than 4000 airports (METAR and TAF reports).

The available stations are represented by yellow and red dots on the map.

Hover mouse over dot to see the name of the station.

Then click to see weather observations and forecasts.

To change the map : click on the green buttons with a black cross to zoom in, on the green button with a dash to zoom out, or on the green arrows for adjacent maps.


METAR-TAF: